sensor_id;sensor_type;location;lat;lon;timestamp;P1;durP1;ratioP1;P2;durP2;ratioP2
27580;SDS011;63557;52.302;7.964;2023-04-25T00:04:38;17.93;;;8.27;;
27580;SDS011;63557;52.302;7.964;2023-04-25T00:09:39;14.63;;;7.77;;
27580;SDS011;63557;52.302;7.964;2023-04-25T00:14:39;29.90;;;8.77;;
27580;SDS011;63557;52.302;7.964;2023-04-25T00:19:40;22.20;;;8.52;;
27580;SDS011;63557;52.302;7.964;2023-04-25T00:24:40;22.40;;;9.05;;
27580;SDS011;63557;52.302;7.964;2023-04-25T00:29:40;16.57;;;8.10;;
27580;SDS011;63557;52.302;7.964;2023-04-25T00:34:41;15.80;;;7.60;;
27580;SDS011;63557;52.302;7.964;2023-04-25T00:39:41;16.97;;;9.30;;
27580;SDS011;63557;52.302;7.964;2023-04-25T00:44:42;25.92;;;8.52;;
27580;SDS011;63557;52.302;7.964;2023-04-25T00:49:42;31.27;;;9.25;;
27580;SDS011;63557;52.302;7.964;2023-04-25T00:54:43;31.83;;;9.65;;
27580;SDS011;63557;52.302;7.964;2023-04-25T00:59:44;31.90;;;9.37;;
27580;SDS011;63557;52.302;7.964;2023-04-25T01:04:45;28.48;;;9.88;;
27580;SDS011;63557;52.302;7.964;2023-04-25T01:09:46;29.85;;;8.40;;
27580;SDS011;63557;52.302;7.964;2023-04-25T01:14:46;37.08;;;9.80;;
27580;SDS011;63557;52.302;7.964;2023-04-25T01:19:47;37.92;;;8.73;;
27580;SDS011;63557;52.302;7.964;2023-04-25T01:24:49;23.38;;;7.65;;
27580;SDS011;63557;52.302;7.964;2023-04-25T01:29:49;38.08;;;9.32;;
27580;SDS011;63557;52.302;7.964;2023-04-25T01:34:50;41.03;;;9.48;;
27580;SDS011;63557;52.302;7.964;2023-04-25T01:39:50;33.17;;;8.20;;
27580;SDS011;63557;52.302;7.964;2023-04-25T01:44:51;35.70;;;8.82;;
27580;SDS011;63557;52.302;7.964;2023-04-25T01:49:51;41.10;;;8.98;;
27580;SDS011;63557;52.302;7.964;2023-04-25T01:54:52;31.42;;;8.65;;
27580;SDS011;63557;52.302;7.964;2023-04-25T01:59:58;43.25;;;8.75;;
27580;SDS011;63557;52.302;7.964;2023-04-25T02:05:14;43.78;;;8.50;;
27580;SDS011;63557;52.302;7.964;2023-04-25T02:10:16;43.88;;;9.10;;
27580;SDS011;63557;52.302;7.964;2023-04-25T02:15:28;41.55;;;9.45;;
27580;SDS011;63557;52.302;7.964;2023-04-25T02:20:32;35.45;;;8.20;;
27580;SDS011;63557;52.302;7.964;2023-04-25T02:25:33;27.40;;;9.07;;
27580;SDS011;63557;52.302;7.964;2023-04-25T02:30:33;32.90;;;7.60;;
27580;SDS011;63557;52.302;7.964;2023-04-25T02:35:38;35.83;;;7.90;;
27580;SDS011;63557;52.302;7.964;2023-04-25T02:40:39;40.38;;;8.15;;
27580;SDS011;63557;52.302;7.964;2023-04-25T02:45:39;31.53;;;7.70;;
27580;SDS011;63557;52.302;7.964;2023-04-25T02:50:39;23.60;;;7.30;;
27580;SDS011;63557;52.302;7.964;2023-04-25T02:55:40;31.25;;;7.90;;
27580;SDS011;63557;52.302;7.964;2023-04-25T03:00:41;29.73;;;7.78;;
27580;SDS011;63557;52.302;7.964;2023-04-25T03:05:41;26.67;;;7.27;;
27580;SDS011;63557;52.302;7.964;2023-04-25T03:10:42;38.25;;;8.70;;
27580;SDS011;63557;52.302;7.964;2023-04-25T03:15:44;33.95;;;8.05;;
27580;SDS011;63557;52.302;7.964;2023-04-25T03:20:45;26.10;;;8.43;;
27580;SDS011;63557;52.302;7.964;2023-04-25T03:25:46;25.17;;;8.07;;
27580;SDS011;63557;52.302;7.964;2023-04-25T03:30:47;30.80;;;8.70;;
27580;SDS011;63557;52.302;7.964;2023-04-25T03:35:47;44.50;;;9.98;;
27580;SDS011;63557;52.302;7.964;2023-04-25T03:40:49;44.85;;;11.27;;
27580;SDS011;63557;52.302;7.964;2023-04-25T03:45:57;34.90;;;10.20;;
27580;SDS011;63557;52.302;7.964;2023-04-25T03:50:59;41.60;;;10.32;;
27580;SDS011;63557;52.302;7.964;2023-04-25T03:55:59;38.10;;;9.90;;
27580;SDS011;63557;52.302;7.964;2023-04-25T04:01:00;32.95;;;9.70;;
27580;SDS011;63557;52.302;7.964;2023-04-25T04:06:03;40.30;;;11.27;;
27580;SDS011;63557;52.302;7.964;2023-04-25T04:11:06;38.83;;;11.02;;
27580;SDS011;63557;52.302;7.964;2023-04-25T04:16:07;30.00;;;10.30;;
27580;SDS011;63557;52.302;7.964;2023-04-25T04:21:08;39.65;;;11.98;;
27580;SDS011;63557;52.302;7.964;2023-04-25T04:26:12;39.25;;;13.82;;
27580;SDS011;63557;52.302;7.964;2023-04-25T04:31:24;45.50;;;17.23;;
27580;SDS011;63557;52.302;7.964;2023-04-25T04:36:25;47.42;;;21.58;;
27580;SDS011;63557;52.302;7.964;2023-04-25T04:41:27;48.80;;;19.63;;
27580;SDS011;63557;52.302;7.964;2023-04-25T04:46:39;46.83;;;14.88;;
27580;SDS011;63557;52.302;7.964;2023-04-25T04:52:04;37.45;;;9.98;;
27580;SDS011;63557;52.302;7.964;2023-04-25T04:57:11;37.55;;;9.38;;
27580;SDS011;63557;52.302;7.964;2023-04-25T05:02:34;35.85;;;9.18;;
27580;SDS011;63557;52.302;7.964;2023-04-25T05:07:57;28.48;;;7.38;;
27580;SDS011;63557;52.302;7.964;2023-04-25T05:13:23;30.42;;;7.85;;
27580;SDS011;63557;52.302;7.964;2023-04-25T05:18:50;37.38;;;8.77;;
27580;SDS011;63557;52.302;7.964;2023-04-25T05:24:01;29.08;;;7.82;;
27580;SDS011;63557;52.302;7.964;2023-04-25T05:29:20;35.50;;;8.10;;
27580;SDS011;63557;52.302;7.964;2023-04-25T05:34:55;28.65;;;7.75;;
27580;SDS011;63557;52.302;7.964;2023-04-25T05:40:18;30.27;;;8.00;;
27580;SDS011;63557;52.302;7.964;2023-04-25T05:45:33;26.38;;;7.70;;
27580;SDS011;63557;52.302;7.964;2023-04-25T05:51:05;27.23;;;7.32;;
27580;SDS011;63557;52.302;7.964;2023-04-25T05:56:19;34.55;;;8.35;;
27580;SDS011;63557;52.302;7.964;2023-04-25T06:01:22;41.33;;;9.18;;
27580;SDS011;63557;52.302;7.964;2023-04-25T06:06:23;25.15;;;7.60;;
27580;SDS011;63557;52.302;7.964;2023-04-25T06:11:23;29.98;;;7.88;;
27580;SDS011;63557;52.302;7.964;2023-04-25T06:16:24;26.52;;;7.32;;
27580;SDS011;63557;52.302;7.964;2023-04-25T06:21:26;33.28;;;7.50;;
27580;SDS011;63557;52.302;7.964;2023-04-25T06:26:27;37.72;;;8.48;;
27580;SDS011;63557;52.302;7.964;2023-04-25T06:31:27;30.60;;;8.52;;
27580;SDS011;63557;52.302;7.964;2023-04-25T06:36:30;33.47;;;8.07;;
27580;SDS011;63557;52.302;7.964;2023-04-25T06:41:37;32.92;;;7.65;;
27580;SDS011;63557;52.302;7.964;2023-04-25T06:46:40;27.13;;;7.13;;
27580;SDS011;63557;52.302;7.964;2023-04-25T06:51:41;19.97;;;6.37;;
27580;SDS011;63557;52.302;7.964;2023-04-25T06:56:42;25.52;;;6.15;;
27580;SDS011;63557;52.302;7.964;2023-04-25T07:01:46;26.77;;;6.13;;
27580;SDS011;63557;52.302;7.964;2023-04-25T07:06:53;12.98;;;4.50;;
27580;SDS011;63557;52.302;7.964;2023-04-25T07:12:01;17.35;;;5.20;;
27580;SDS011;63557;52.302;7.964;2023-04-25T07:17:01;29.73;;;5.25;;
27580;SDS011;63557;52.302;7.964;2023-04-25T07:22:04;24.15;;;4.80;;
27580;SDS011;63557;52.302;7.964;2023-04-25T07:27:07;18.00;;;4.25;;
27580;SDS011;63557;52.302;7.964;2023-04-25T07:32:25;22.20;;;4.50;;
27580;SDS011;63557;52.302;7.964;2023-04-25T07:37:28;22.88;;;4.82;;
27580;SDS011;63557;52.302;7.964;2023-04-25T07:42:36;17.90;;;3.92;;
27580;SDS011;63557;52.302;7.964;2023-04-25T07:47:38;18.00;;;4.18;;
27580;SDS011;63557;52.302;7.964;2023-04-25T07:52:38;15.10;;;3.88;;
27580;SDS011;63557;52.302;7.964;2023-04-25T07:57:57;23.10;;;3.90;;
27580;SDS011;63557;52.302;7.964;2023-04-25T08:02:58;11.82;;;2.85;;
27580;SDS011;63557;52.302;7.964;2023-04-25T08:07:59;19.70;;;3.53;;
27580;SDS011;63557;52.302;7.964;2023-04-25T08:13:00;11.52;;;3.33;;
27580;SDS011;63557;52.302;7.964;2023-04-25T08:18:01;19.02;;;3.08;;
27580;SDS011;63557;52.302;7.964;2023-04-25T08:23:02;17.15;;;3.30;;
27580;SDS011;63557;52.302;7.964;2023-04-25T08:28:28;14.73;;;2.85;;
27580;SDS011;63557;52.302;7.964;2023-04-25T08:33:31;11.32;;;3.20;;
27580;SDS011;63557;52.302;7.964;2023-04-25T08:38:57;16.95;;;4.18;;
27580;SDS011;63557;52.302;7.964;2023-04-25T08:43:58;16.45;;;2.90;;
27580;SDS011;63557;52.302;7.964;2023-04-25T08:49:01;16.33;;;3.20;;
27580;SDS011;63557;52.302;7.964;2023-04-25T08:54:09;15.00;;;3.33;;
27580;SDS011;63557;52.302;7.964;2023-04-25T08:59:11;16.92;;;3.40;;
27580;SDS011;63557;52.302;7.964;2023-04-25T09:04:12;16.73;;;3.67;;
27580;SDS011;63557;52.302;7.964;2023-04-25T09:09:14;15.15;;;2.72;;
27580;SDS011;63557;52.302;7.964;2023-04-25T09:14:19;9.80;;;2.47;;
27580;SDS011;63557;52.302;7.964;2023-04-25T09:19:48;9.80;;;2.42;;
27580;SDS011;63557;52.302;7.964;2023-04-25T09:25:13;13.52;;;2.25;;
27580;SDS011;63557;52.302;7.964;2023-04-25T09:30:18;8.30;;;2.60;;
27580;SDS011;63557;52.302;7.964;2023-04-25T09:35:42;12.68;;;2.90;;
27580;SDS011;63557;52.302;7.964;2023-04-25T09:40:48;10.13;;;2.40;;
27580;SDS011;63557;52.302;7.964;2023-04-25T09:46:01;11.90;;;2.20;;
27580;SDS011;63557;52.302;7.964;2023-04-25T09:51:04;12.80;;;2.97;;
27580;SDS011;63557;52.302;7.964;2023-04-25T09:56:06;13.32;;;2.90;;
27580;SDS011;63557;52.302;7.964;2023-04-25T10:01:09;11.25;;;2.70;;
27580;SDS011;63557;52.302;7.964;2023-04-25T10:06:20;12.95;;;2.75;;
27580;SDS011;63557;52.302;7.964;2023-04-25T10:11:23;8.88;;;3.00;;
27580;SDS011;63557;52.302;7.964;2023-04-25T10:16:24;13.45;;;3.47;;
27580;SDS011;63557;52.302;7.964;2023-04-25T10:21:25;11.98;;;2.70;;
27580;SDS011;63557;52.302;7.964;2023-04-25T10:26:27;15.68;;;3.17;;
27580;SDS011;63557;52.302;7.964;2023-04-25T10:31:31;8.85;;;2.42;;
27580;SDS011;63557;52.302;7.964;2023-04-25T10:36:32;9.25;;;2.90;;
27580;SDS011;63557;52.302;7.964;2023-04-25T10:41:32;13.45;;;3.13;;
27580;SDS011;63557;52.302;7.964;2023-04-25T10:46:45;5.90;;;2.33;;
27580;SDS011;63557;52.302;7.964;2023-04-25T10:51:48;11.75;;;3.00;;
27580;SDS011;63557;52.302;7.964;2023-04-25T10:56:48;11.90;;;2.47;;
27580;SDS011;63557;52.302;7.964;2023-04-25T11:01:51;11.60;;;2.80;;
27580;SDS011;63557;52.302;7.964;2023-04-25T11:11:55;9.85;;;2.65;;
27580;SDS011;63557;52.302;7.964;2023-04-25T11:16:56;9.25;;;2.50;;
27580;SDS011;63557;52.302;7.964;2023-04-25T11:21:57;10.32;;;2.20;;
27580;SDS011;63557;52.302;7.964;2023-04-25T11:26:58;7.18;;;2.33;;
27580;SDS011;63557;52.302;7.964;2023-04-25T11:31:59;8.15;;;2.28;;
27580;SDS011;63557;52.302;7.964;2023-04-25T11:37:01;6.60;;;2.50;;
27580;SDS011;63557;52.302;7.964;2023-04-25T11:42:02;4.88;;;1.88;;
27580;SDS011;63557;52.302;7.964;2023-04-25T11:47:04;11.15;;;2.42;;
27580;SDS011;63557;52.302;7.964;2023-04-25T11:52:06;5.70;;;1.92;;
27580;SDS011;63557;52.302;7.964;2023-04-25T11:57:07;9.30;;;2.10;;
27580;SDS011;63557;52.302;7.964;2023-04-25T12:02:07;8.07;;;2.00;;
27580;SDS011;63557;52.302;7.964;2023-04-25T12:07:09;4.97;;;1.70;;
27580;SDS011;63557;52.302;7.964;2023-04-25T12:12:10;5.28;;;1.50;;
27580;SDS011;63557;52.302;7.964;2023-04-25T12:17:10;7.20;;;1.87;;
27580;SDS011;63557;52.302;7.964;2023-04-25T12:22:18;4.05;;;1.50;;
27580;SDS011;63557;52.302;7.964;2023-04-25T12:27:19;5.32;;;1.73;;
27580;SDS011;63557;52.302;7.964;2023-04-25T12:32:20;5.57;;;1.60;;
27580;SDS011;63557;52.302;7.964;2023-04-25T12:37:20;10.85;;;2.00;;
27580;SDS011;63557;52.302;7.964;2023-04-25T12:42:21;8.43;;;2.10;;
27580;SDS011;63557;52.302;7.964;2023-04-25T12:47:21;8.77;;;1.53;;
27580;SDS011;63557;52.302;7.964;2023-04-25T12:52:22;4.37;;;1.73;;
27580;SDS011;63557;52.302;7.964;2023-04-25T12:57:22;5.00;;;1.77;;
27580;SDS011;63557;52.302;7.964;2023-04-25T13:02:22;6.83;;;1.97;;
27580;SDS011;63557;52.302;7.964;2023-04-25T13:07:23;3.85;;;1.42;;
27580;SDS011;63557;52.302;7.964;2023-04-25T13:12:23;3.80;;;1.50;;
27580;SDS011;63557;52.302;7.964;2023-04-25T13:17:23;4.10;;;1.50;;
27580;SDS011;63557;52.302;7.964;2023-04-25T13:22:24;2.90;;;1.15;;
27580;SDS011;63557;52.302;7.964;2023-04-25T13:27:24;5.60;;;1.50;;
27580;SDS011;63557;52.302;7.964;2023-04-25T13:32:25;8.00;;;2.37;;
27580;SDS011;63557;52.302;7.964;2023-04-25T13:37:25;7.20;;;1.77;;
27580;SDS011;63557;52.302;7.964;2023-04-25T13:42:25;6.90;;;2.10;;
27580;SDS011;63557;52.302;7.964;2023-04-25T13:47:26;7.28;;;2.00;;
27580;SDS011;63557;52.302;7.964;2023-04-25T13:52:27;9.20;;;2.33;;
27580;SDS011;63557;52.302;7.964;2023-04-25T13:57:28;8.95;;;2.20;;
27580;SDS011;63557;52.302;7.964;2023-04-25T14:02:28;5.00;;;2.17;;
27580;SDS011;63557;52.302;7.964;2023-04-25T14:07:28;4.10;;;2.10;;
27580;SDS011;63557;52.302;7.964;2023-04-25T14:12:29;4.97;;;2.60;;
27580;SDS011;63557;52.302;7.964;2023-04-25T14:17:29;4.37;;;2.10;;
27580;SDS011;63557;52.302;7.964;2023-04-25T14:22:29;5.32;;;2.20;;
27580;SDS011;63557;52.302;7.964;2023-04-25T14:27:30;3.42;;;2.00;;
27580;SDS011;63557;52.302;7.964;2023-04-25T14:32:30;4.47;;;2.03;;
27580;SDS011;63557;52.302;7.964;2023-04-25T14:37:32;8.13;;;2.10;;
27580;SDS011;63557;52.302;7.964;2023-04-25T14:42:32;9.83;;;2.10;;
27580;SDS011;63557;52.302;7.964;2023-04-25T14:47:34;4.15;;;1.80;;
27580;SDS011;63557;52.302;7.964;2023-04-25T14:52:35;3.88;;;1.63;;
27580;SDS011;63557;52.302;7.964;2023-04-25T14:57:35;6.93;;;2.13;;
27580;SDS011;63557;52.302;7.964;2023-04-25T15:02:36;8.20;;;2.30;;
27580;SDS011;63557;52.302;7.964;2023-04-25T15:07:36;6.18;;;2.20;;
27580;SDS011;63557;52.302;7.964;2023-04-25T15:12:37;4.43;;;1.67;;
27580;SDS011;63557;52.302;7.964;2023-04-25T15:17:40;10.48;;;2.03;;
27580;SDS011;63557;52.302;7.964;2023-04-25T15:22:41;7.28;;;2.47;;
27580;SDS011;63557;52.302;7.964;2023-04-25T15:27:42;6.88;;;2.58;;
27580;SDS011;63557;52.302;7.964;2023-04-25T15:32:44;5.53;;;1.98;;
27580;SDS011;63557;52.302;7.964;2023-04-25T15:37:45;5.80;;;2.15;;
27580;SDS011;63557;52.302;7.964;2023-04-25T15:42:46;8.30;;;2.17;;
27580;SDS011;63557;52.302;7.964;2023-04-25T15:47:54;3.10;;;1.60;;
27580;SDS011;63557;52.302;7.964;2023-04-25T15:52:54;6.00;;;1.80;;
27580;SDS011;63557;52.302;7.964;2023-04-25T15:57:55;7.13;;;2.63;;
27580;SDS011;63557;52.302;7.964;2023-04-25T16:02:55;6.33;;;2.17;;
27580;SDS011;63557;52.302;7.964;2023-04-25T16:07:56;6.00;;;2.10;;
27580;SDS011;63557;52.302;7.964;2023-04-25T16:12:56;8.25;;;2.55;;
27580;SDS011;63557;52.302;7.964;2023-04-25T16:17:56;12.73;;;2.60;;
27580;SDS011;63557;52.302;7.964;2023-04-25T16:22:57;9.87;;;1.90;;
27580;SDS011;63557;52.302;7.964;2023-04-25T16:27:57;5.37;;;2.20;;
27580;SDS011;63557;52.302;7.964;2023-04-25T16:32:57;4.60;;;2.30;;
27580;SDS011;63557;52.302;7.964;2023-04-25T16:37:58;5.13;;;1.87;;
27580;SDS011;63557;52.302;7.964;2023-04-25T16:42:58;10.52;;;2.88;;
27580;SDS011;63557;52.302;7.964;2023-04-25T16:47:59;5.03;;;1.90;;
27580;SDS011;63557;52.302;7.964;2023-04-25T16:52:59;7.88;;;2.80;;
27580;SDS011;63557;52.302;7.964;2023-04-25T16:58:00;7.32;;;2.40;;
27580;SDS011;63557;52.302;7.964;2023-04-25T17:03:00;6.95;;;2.13;;
27580;SDS011;63557;52.302;7.964;2023-04-25T17:08:00;7.47;;;2.40;;
27580;SDS011;63557;52.302;7.964;2023-04-25T17:13:01;5.70;;;2.10;;
27580;SDS011;63557;52.302;7.964;2023-04-25T17:18:01;6.97;;;2.33;;
27580;SDS011;63557;52.302;7.964;2023-04-25T17:23:02;7.20;;;2.13;;
27580;SDS011;63557;52.302;7.964;2023-04-25T17:28:02;9.80;;;2.50;;
27580;SDS011;63557;52.302;7.964;2023-04-25T17:33:02;13.27;;;2.58;;
27580;SDS011;63557;52.302;7.964;2023-04-25T17:38:03;11.10;;;3.63;;
27580;SDS011;63557;52.302;7.964;2023-04-25T17:43:03;11.10;;;2.90;;
27580;SDS011;63557;52.302;7.964;2023-04-25T17:48:04;10.97;;;4.77;;
27580;SDS011;63557;52.302;7.964;2023-04-25T17:53:04;12.27;;;4.07;;
27580;SDS011;63557;52.302;7.964;2023-04-25T17:58:05;8.02;;;2.67;;
27580;SDS011;63557;52.302;7.964;2023-04-25T18:03:06;6.18;;;2.60;;
27580;SDS011;63557;52.302;7.964;2023-04-25T18:08:06;10.07;;;3.73;;
27580;SDS011;63557;52.302;7.964;2023-04-25T18:13:07;8.60;;;2.80;;
27580;SDS011;63557;52.302;7.964;2023-04-25T18:18:08;13.65;;;2.83;;
27580;SDS011;63557;52.302;7.964;2023-04-25T18:23:14;10.32;;;2.78;;
27580;SDS011;63557;52.302;7.964;2023-04-25T18:28:14;13.53;;;3.13;;
27580;SDS011;63557;52.302;7.964;2023-04-25T18:33:15;6.93;;;2.53;;
27580;SDS011;63557;52.302;7.964;2023-04-25T18:38:15;10.75;;;3.05;;
27580;SDS011;63557;52.302;7.964;2023-04-25T18:43:16;12.13;;;3.20;;
27580;SDS011;63557;52.302;7.964;2023-04-25T18:48:16;11.57;;;3.20;;
27580;SDS011;63557;52.302;7.964;2023-04-25T18:53:17;14.30;;;3.33;;
27580;SDS011;63557;52.302;7.964;2023-04-25T18:58:17;10.67;;;3.27;;
27580;SDS011;63557;52.302;7.964;2023-04-25T19:03:17;10.70;;;3.60;;
27580;SDS011;63557;52.302;7.964;2023-04-25T19:08:18;14.25;;;3.80;;
27580;SDS011;63557;52.302;7.964;2023-04-25T19:13:18;13.90;;;4.40;;
27580;SDS011;63557;52.302;7.964;2023-04-25T19:18:19;11.48;;;4.75;;
27580;SDS011;63557;52.302;7.964;2023-04-25T19:23:19;12.83;;;5.90;;
27580;SDS011;63557;52.302;7.964;2023-04-25T19:28:21;15.93;;;5.93;;
27580;SDS011;63557;52.302;7.964;2023-04-25T19:33:22;13.32;;;5.63;;
27580;SDS011;63557;52.302;7.964;2023-04-25T19:38:22;14.40;;;4.97;;
27580;SDS011;63557;52.302;7.964;2023-04-25T19:43:22;12.13;;;4.80;;
27580;SDS011;63557;52.302;7.964;2023-04-25T19:48:23;9.37;;;4.53;;
27580;SDS011;63557;52.302;7.964;2023-04-25T19:53:23;12.40;;;3.60;;
27580;SDS011;63557;52.302;7.964;2023-04-25T19:58:24;11.90;;;4.40;;
27580;SDS011;63557;52.302;7.964;2023-04-25T20:03:25;15.27;;;4.78;;
27580;SDS011;63557;52.302;7.964;2023-04-25T20:08:26;15.63;;;5.13;;
27580;SDS011;63557;52.302;7.964;2023-04-25T20:13:26;15.20;;;4.03;;
27580;SDS011;63557;52.302;7.964;2023-04-25T20:18:27;16.35;;;5.20;;
27580;SDS011;63557;52.302;7.964;2023-04-25T20:23:28;12.45;;;4.28;;
27580;SDS011;63557;52.302;7.964;2023-04-25T20:28:29;14.23;;;4.10;;
27580;SDS011;63557;52.302;7.964;2023-04-25T20:33:29;13.27;;;4.90;;
27580;SDS011;63557;52.302;7.964;2023-04-25T20:38:30;9.77;;;4.10;;
27580;SDS011;63557;52.302;7.964;2023-04-25T20:43:30;17.20;;;4.23;;
27580;SDS011;63557;52.302;7.964;2023-04-25T20:48:30;16.63;;;4.03;;
27580;SDS011;63557;52.302;7.964;2023-04-25T20:53:31;10.27;;;4.50;;
27580;SDS011;63557;52.302;7.964;2023-04-25T20:58:31;8.85;;;3.83;;
27580;SDS011;63557;52.302;7.964;2023-04-25T21:03:32;8.45;;;3.85;;
27580;SDS011;63557;52.302;7.964;2023-04-25T21:08:33;12.63;;;4.45;;
27580;SDS011;63557;52.302;7.964;2023-04-25T21:13:34;9.63;;;4.35;;
27580;SDS011;63557;52.302;7.964;2023-04-25T21:18:34;19.23;;;5.05;;
27580;SDS011;63557;52.302;7.964;2023-04-25T21:23:35;23.98;;;7.30;;
27580;SDS011;63557;52.302;7.964;2023-04-25T21:28:35;20.47;;;7.97;;
27580;SDS011;63557;52.302;7.964;2023-04-25T21:33:35;19.53;;;8.80;;
27580;SDS011;63557;52.302;7.964;2023-04-25T21:38:36;26.48;;;9.38;;
27580;SDS011;63557;52.302;7.964;2023-04-25T21:43:37;15.85;;;7.50;;
27580;SDS011;63557;52.302;7.964;2023-04-25T21:48:37;16.53;;;7.70;;
27580;SDS011;63557;52.302;7.964;2023-04-25T21:53:38;18.80;;;7.45;;
27580;SDS011;63557;52.302;7.964;2023-04-25T21:58:38;13.50;;;6.75;;
27580;SDS011;63557;52.302;7.964;2023-04-25T22:03:38;19.97;;;7.20;;
27580;SDS011;63557;52.302;7.964;2023-04-25T22:08:39;14.23;;;5.78;;
27580;SDS011;63557;52.302;7.964;2023-04-25T22:13:39;16.25;;;5.47;;
27580;SDS011;63557;52.302;7.964;2023-04-25T22:18:40;17.42;;;6.05;;
27580;SDS011;63557;52.302;7.964;2023-04-25T22:23:41;26.75;;;5.70;;
27580;SDS011;63557;52.302;7.964;2023-04-25T22:28:41;18.05;;;4.78;;
27580;SDS011;63557;52.302;7.964;2023-04-25T22:33:41;17.80;;;5.68;;
27580;SDS011;63557;52.302;7.964;2023-04-25T22:38:45;16.40;;;5.45;;
27580;SDS011;63557;52.302;7.964;2023-04-25T22:43:46;13.90;;;4.28;;
27580;SDS011;63557;52.302;7.964;2023-04-25T22:48:47;21.08;;;6.07;;
27580;SDS011;63557;52.302;7.964;2023-04-25T22:53:48;17.38;;;5.72;;
27580;SDS011;63557;52.302;7.964;2023-04-25T22:58:48;23.75;;;5.70;;
27580;SDS011;63557;52.302;7.964;2023-04-25T23:03:49;20.15;;;5.60;;
27580;SDS011;63557;52.302;7.964;2023-04-25T23:08:50;15.25;;;5.50;;
27580;SDS011;63557;52.302;7.964;2023-04-25T23:13:50;21.93;;;5.80;;
27580;SDS011;63557;52.302;7.964;2023-04-25T23:18:50;16.60;;;6.00;;
27580;SDS011;63557;52.302;7.964;2023-04-25T23:23:51;15.55;;;6.28;;
27580;SDS011;63557;52.302;7.964;2023-04-25T23:28:51;22.98;;;5.75;;
27580;SDS011;63557;52.302;7.964;2023-04-25T23:33:52;16.97;;;4.70;;
27580;SDS011;63557;52.302;7.964;2023-04-25T23:38:52;14.07;;;5.43;;
27580;SDS011;63557;52.302;7.964;2023-04-25T23:43:54;19.52;;;4.82;;
27580;SDS011;63557;52.302;7.964;2023-04-25T23:48:55;20.65;;;6.07;;
27580;SDS011;63557;52.302;7.964;2023-04-25T23:53:55;19.02;;;4.38;;
27580;SDS011;63557;52.302;7.964;2023-04-25T23:58:56;14.13;;;4.13;;
